Terminal Aerodrome Forecast
Issued by NWS

Home | Current Version | Previous Version | Text Only | Print | Product List | Glossary Off
Versions: 1 2 3 4 5 6 7 8 9 10 11 12 13 14 15 16 17 18 19 20 21

331
FTUS43 KTOP 222338
TAFFOE
TAF
KFOE 222338Z 2300/2324 28004KT P6SM FEW250
     FM230300 36005KT P6SM FEW250
     FM231300 08009KT P6SM BKN150
     FM231500 09012G22KT P6SM VCSH OVC070
     FM231800 11012KT P6SM BKN035
     FM232200 14010KT P6SM BKN150=

USA.gov is the U.S. government's official web portal to all federal, state and local government web resources and services.